Flight Track Log - Related Links

Times and Time Zones

All times are in EDT time to prevent confusion due to time zone crossing. See the XA-PBT flight status page for this flight to view local times or setup timezone preferences in your user account.


Time Position Orientation Groundspeed Altitude Reporting Facility
EDT Latitude Longitude Course Direction KTS MPH feet Rate Location/Type
Tue 04:47:31 PM 36.0789 -115.1911 269° West 207 238 3,200  Level Los Angeles Center
Tue 04:47:55 PM 36.0783 -115.2181 269° West 207 238 4,000 2,188 Climbing Los Angeles Center
Tue 04:48:56 PM 36.0414 -115.2672 227° Southwest 220 253 6,300 1,976 Climbing Los Angeles Center
Tue 04:49:17 PM 36.0231 -115.2711 190° South 232 267 6,700 1,869 Climbing Los Angeles Center
Tue 04:49:57 PM 35.9731 -115.3003 205° Southwest 252 290 8,200 2,317 Climbing Los Angeles Center
Tue 04:50:58 PM 35.9067 -115.3328 202° Southwest 255 293 10,600 2,297 Climbing Los Angeles Center
Tue 04:52:05 PM 35.8403 -115.2856 150° Southeast 314 361 13,100 2,023 Climbing Los Angeles Center
Tue 04:52:24 PM 35.8358 -115.2628 104° East 328 377 13,500 2,000 Climbing Los Angeles Center
Tue 04:53:26 PM 35.8386 -115.1347 88° East 337 388 15,800 1,790 Climbing Los Angeles Center
Tue 04:54:28 PM 35.8483 -115.0111 84° East 348 400 17,200 2,162 Climbing Los Angeles Center
Tue 04:55:42 PM 35.8558 -114.8842 86° East 358 412 20,700 2,735 Climbing Los Angeles Center
Tue 04:56:44 PM 35.8681 -114.7047 85° East 374 430 23,400 2,304 Climbing Los Angeles Center
Tue 04:57:47 PM 35.8772 -114.5744 85° East 380 437 25,500 1,968 Climbing Los Angeles Center
Tue 04:58:49 PM 35.8869 -114.4431 85° East 386 444 27,500 1,935 Climbing Los Angeles Center
Tue 04:59:51 PM 35.8956 -114.3103 85° East 388 447 29,500 1,548 Climbing Los Angeles Center
Tue 05:00:53 PM 35.9036 -114.1850 85° East 385 443 30,700 1,113 Climbing Los Angeles Center
Tue 05:01:55 PM 35.9136 -114.0206 86° East 397 457 31,800 871 Climbing Los Angeles Center
Tue 05:02:57 PM 35.8750 -113.8900 110° East 414 476 32,500 677 Climbing Los Angeles Center
Tue 05:03:59 PM 35.8158 -113.7697 121° Southeast 411 473 33,200 774 Climbing Los Angeles Center
Tue 05:05:01 PM 35.7556 -113.6431 120° Southeast 423 487 34,100 1,008 Climbing Los Angeles Center
Tue 05:06:04 PM 35.6944 -113.5167 121° Southeast 430 495 35,300 1,200 Climbing Los Angeles Center
Tue 05:07:06 PM 35.6242 -113.3697 120° Southeast 421 484 36,600 823 Climbing Los Angeles Center
Tue 05:08:08 PM 35.5622 -113.2431 121° Southeast 413 475 37,000 194 Climbing Los Angeles Center
Tue 05:09:10 PM 35.5008 -113.1167 121° Southeast 424 488 37,000  Level Los Angeles Center
Tue 05:10:12 PM 35.4369 -112.9828 120° Southeast 446 513 37,000  Level Los Angeles Center
Tue 05:11:14 PM 35.3678 -112.8428 121° Southeast 474 545 37,000  Level Los Angeles Center
Tue 05:12:06 PM 35.3161 -112.7386 121° Southeast 472 543 37,000  Level Albuquerque Center
Tue 05:13:06 PM 35.2419 -112.5914 122° Southeast 480 552 37,000  Level Albuquerque Center
Tue 05:14:07 PM 35.1731 -112.4539 121° Southeast 478 550 37,000  Level Albuquerque Center
Tue 05:15:11 PM 35.1033 -112.3147 121° Southeast 481 554 37,000  Level Albuquerque Center
Tue 05:16:11 PM 35.0186 -112.1469 122° Southeast 484 557 37,000  Level Albuquerque Center
Tue 05:17:12 PM 34.9492 -112.0092 122° Southeast 482 555 37,000  Level Albuquerque Center
Tue 05:18:16 PM 34.8783 -111.8706 122° Southeast 483 556 37,000  Level Albuquerque Center
Tue 05:19:17 PM 34.8094 -111.7339 122° Southeast 479 551 37,000  Level Albuquerque Center
Tue 05:20:18 PM 34.7400 -111.5986 122° Southeast 478 550 37,000  Level Albuquerque Center
Tue 05:21:21 PM 34.6708 -111.4625 122° Southeast 475 547 37,000  Level Albuquerque Center
Tue 05:22:23 PM 34.5864 -111.2986 122° Southeast 474 545 37,000  Level Albuquerque Center
Tue 05:23:24 PM 34.5164 -111.1625 122° Southeast 475 547 37,000  Level Albuquerque Center
Tue 05:24:25 PM 34.4461 -111.0272 122° Southeast 474 545 37,000  Level Albuquerque Center
Tue 05:25:28 PM 34.3772 -110.8922 122° Southeast 471 542 37,000  Level Albuquerque Center
Tue 05:26:28 PM 34.3067 -110.7581 122° Southeast 471 542 37,000  Level Albuquerque Center
Tue 05:27:32 PM 34.2372 -110.6225 122° Southeast 471 542 37,000  Level Albuquerque Center
Tue 05:28:34 PM 34.1672 -110.4883 122° Southeast 472 543 37,000  Level Albuquerque Center
Tue 05:29:35 PM 34.0972 -110.3567 123° Southeast 470 541 37,000  Level Albuquerque Center
Tue 05:30:36 PM 34.0125 -110.1989 123° Southeast 467 537 37,000  Level Albuquerque Center
Tue 05:31:39 PM 33.9425 -110.0683 123° Southeast 466 536 37,000  Level Albuquerque Center
Tue 05:32:40 PM 33.8731 -109.9361 122° Southeast 467 537 37,000  Level Albuquerque Center
Tue 05:33:44 PM 33.8028 -109.8056 123° Southeast 466 536 37,000  Level Albuquerque Center
Tue 05:34:44 PM 33.7333 -109.6744 122° Southeast 466 536 37,000  Level Albuquerque Center
Tue 05:35:45 PM 33.6622 -109.5436 123° Southeast 467 537 37,000  Level Albuquerque Center
Tue 05:36:49 PM 33.5911 -109.4136 123° Southeast 466 536 37,000 290 Level Albuquerque Center
Tue 05:37:49 PM 33.5069 -109.2583 123° Southeast 464 534 37,600 780 Climbing Albuquerque Center
Tue 05:38:52 PM 33.4386 -109.1319 123° Southeast 455 524 38,600 677 Climbing Albuquerque Center
Tue 05:39:53 PM 33.3711 -109.0092 123° Southeast 443 510 39,000 197 Climbing Albuquerque Center
Tue 05:40:54 PM 33.2886 -108.8981 132° Southeast 444 511 39,000  Level Albuquerque Center
Tue 05:41:57 PM 33.1939 -108.7781 133° Southeast 449 517 39,000  Level Albuquerque Center
Tue 05:42:58 PM 33.1150 -108.6739 132° Southeast 454 522 39,000  Level Albuquerque Center
Tue 05:44:01 PM 33.0286 -108.5636 133° Southeast 452 520 39,000  Level Albuquerque Center
Tue 05:45:02 PM 32.9419 -108.4544 133° Southeast 451 519 39,000  Level Albuquerque Center
Tue 05:46:04 PM 32.8389 -108.3236 133° Southeast 450 518 39,000  Level Albuquerque Center
Tue 05:47:07 PM 32.7522 -108.2131 133° Southeast 454 522 39,000  Level Albuquerque Center
Tue 05:48:08 PM 32.6661 -108.1053 133° Southeast 452 520 39,000  Level Albuquerque Center
Tue 05:49:12 PM 32.5803 -107.9972 133° Southeast 450 518 39,000  Level Albuquerque Center
Tue 05:50:12 PM 32.4947 -107.8878 133° Southeast 452 520 39,000  Level Albuquerque Center
Tue 05:51:13 PM 32.4072 -107.7775 133° Southeast 452 520 39,000  Level Albuquerque Center
Tue 05:52:17 PM 32.3217 -107.6711 134° Southeast 450 518 39,000  Level Albuquerque Center
Tue 05:53:18 PM 32.2211 -107.5425 133° Southeast 449 517 39,000  Level Albuquerque Center
Tue 05:54:18 PM 32.1375 -107.4369 133° Southeast 447 514 39,000  Level Albuquerque Center
Tue 05:55:21 PM 32.0533 -107.3314 133° Southeast 446 513 39,000  Level Albuquerque Center
Tue 05:56:22 PM 31.9697 -107.2267 133° Southeast 444 511 39,000  Level Albuquerque Center
Tue 05:57:25 PM 31.8858 -107.1239 134° Southeast 441 507 39,000  Level Albuquerque Center
Tue 05:58:27 PM 31.8008 -107.0200 134° Southeast 441 507 39,000  Level Albuquerque Center
Tue 06:00:00 PM 31.7187 -106.8324 117° Southeast  Level FlightAware Approximate
Tue 06:07:00 PM 31.2794 -106.0337 127° Southeast  Level FlightAware Approximate
Tue 06:08:00 PM 31.2090 -105.9262 127° Southeast  Level FlightAware Approximate
Tue 06:09:00 PM 31.1386 -105.8189 127° Southeast  Level FlightAware Approximate
Tue 06:10:00 PM 31.0680 -105.7117 128° Southeast  Level FlightAware Approximate
Tue 06:11:00 PM 30.9974 -105.6046 128° Southeast  Level FlightAware Approximate
Tue 06:12:00 PM 30.9248 -105.4995 129° Southeast  Level FlightAware Approximate
Tue 06:13:00 PM 30.8517 -105.3949 129° Southeast  Level FlightAware Approximate
Tue 06:14:00 PM 30.7785 -105.2905 129° Southeast  Level FlightAware Approximate
Tue 06:15:00 PM 30.7046 -105.1869 130° Southeast  Level FlightAware Approximate
Tue 06:16:00 PM 30.6302 -105.0838 130° Southeast  Level FlightAware Approximate
Tue 06:17:00 PM 30.5557 -104.9808 130° Southeast  Level FlightAware Approximate
Tue 06:18:00 PM 30.4723 -104.8882 139° Southeast  Level FlightAware Approximate
Tue 06:19:00 PM 30.3850 -104.8000 139° Southeast  Level FlightAware Approximate
Tue 06:20:00 PM 30.2976 -104.7120 139° Southeast  Level FlightAware Approximate
Tue 06:21:00 PM 30.2102 -104.6241 139° Southeast  Level FlightAware Approximate
Tue 06:22:00 PM 30.1227 -104.5364 139° Southeast  Level FlightAware Approximate
Tue 06:23:00 PM 30.0352 -104.4489 139° Southeast  Level FlightAware Approximate
Tue 06:24:00 PM 29.9477 -104.3615 139° Southeast  Level FlightAware Approximate
Tue 06:25:00 PM 29.8600 -104.2743 139° Southeast  Level FlightAware Approximate
Tue 06:26:00 PM 29.7723 -104.1872 139° Southeast  Level FlightAware Approximate
Tue 06:27:00 PM 29.6846 -104.1002 139° Southeast  Level FlightAware Approximate
Tue 06:28:00 PM 29.5968 -104.0134 139° Southeast  Level FlightAware Approximate
Tue 06:29:00 PM 29.5097 -103.9257 139° Southeast  Level FlightAware Approximate
Tue 06:30:00 PM 29.4226 -103.8382 139° Southeast  Level FlightAware Approximate
Tue 06:31:00 PM 29.3354 -103.7508 139° Southeast  Level FlightAware Approximate
Tue 06:32:00 PM 29.2481 -103.6636 139° Southeast  Level FlightAware Approximate
Tue 06:33:00 PM 29.1609 -103.5765 139° Southeast  Level FlightAware Approximate
Tue 06:34:00 PM 29.0735 -103.4895 139° Southeast  Level FlightAware Approximate
Tue 06:35:00 PM 28.9861 -103.4027 139° Southeast  Level FlightAware Approximate
Tue 06:36:00 PM 28.8983 -103.3166 139° Southeast  Level FlightAware Approximate
Tue 06:37:00 PM 28.8104 -103.2306 139° Southeast  Level FlightAware Approximate
Tue 06:38:00 PM 28.7224 -103.1448 139° Southeast  Level FlightAware Approximate
Tue 06:39:00 PM 28.6344 -103.0591 139° Southeast  Level FlightAware Approximate
Tue 06:40:00 PM 28.5463 -102.9735 140° Southeast  Level FlightAware Approximate
Tue 06:41:00 PM 28.4582 -102.8881 140° Southeast  Level FlightAware Approximate
Tue 06:42:00 PM 28.3700 -102.8028 140° Southeast  Level FlightAware Approximate
Tue 06:43:00 PM 28.2818 -102.7177 140° Southeast  Level FlightAware Approximate
Tue 06:44:00 PM 28.1935 -102.6327 140° Southeast  Level FlightAware Approximate
Tue 06:45:00 PM 28.1052 -102.5479 140° Southeast  Level FlightAware Approximate
Tue 06:46:00 PM 28.0168 -102.4631 140° Southeast  Level FlightAware Approximate
Tue 06:47:00 PM 27.9283 -102.3786 140° Southeast  Level FlightAware Approximate
Tue 06:48:00 PM 27.8390 -102.2953 140° Southeast  Level FlightAware Approximate
Tue 06:49:00 PM 27.7496 -102.2122 141° Southeast  Level FlightAware Approximate
Tue 06:50:00 PM 27.6602 -102.1291 141° Southeast  Level FlightAware Approximate
Tue 06:51:00 PM 27.5708 -102.0462 141° Southeast  Level FlightAware Approximate
Tue 06:52:00 PM 27.4812 -101.9635 141° Southeast  Level FlightAware Approximate
Tue 06:53:00 PM 27.3921 -101.8802 140° Southeast  Level FlightAware Approximate
Tue 06:54:00 PM 27.3030 -101.7971 140° Southeast  Level FlightAware Approximate
Tue 06:55:00 PM 27.2138 -101.7140 140° Southeast  Level FlightAware Approximate
Tue 06:56:00 PM 27.1250 -101.6306 140° Southeast  Level FlightAware Approximate
Tue 06:57:00 PM 27.0361 -101.5473 140° Southeast  Level FlightAware Approximate
Tue 06:58:00 PM 26.9477 -101.4636 130° Southeast  Level FlightAware Approximate
Tue 06:59:00 PM 26.8689 -101.3689 138° Southeast  Level FlightAware Approximate
Tue 07:00:00 PM 26.7905 -101.2735 132° Southeast  Level FlightAware Approximate
Tue 07:01:00 PM 26.7120 -101.1782 136° Southeast  Level FlightAware Approximate
Tue 07:02:00 PM 26.6289 -101.0881 136° Southeast  Level FlightAware Approximate
Tue 07:03:00 PM 26.5457 -100.9980 136° Southeast  Level FlightAware Approximate
Tue 07:04:00 PM 26.4659 -100.9044 132° Southeast  Level FlightAware Approximate
Tue 07:05:00 PM 26.3879 -100.8089 132° Southeast  Level FlightAware Approximate
Tue 07:06:00 PM 26.3098 -100.7135 132° Southeast  Level FlightAware Approximate
Tue 07:07:00 PM 26.2317 -100.6183 132° Southeast  Level FlightAware Approximate
Tue 07:08:00 PM 26.1514 -100.5254 134° Southeast  Level FlightAware Approximate
Tue 07:09:00 PM 26.0687 -100.4353 138° Southeast  Level FlightAware Approximate
Tue 07:10:00 PM 25.9826 -100.3492 138° Southeast  Level FlightAware Approximate
Tue 07:11:00 PM 25.9016 -100.2577 130° Southeast  Level FlightAware Approximate
Tue 07:12:00 PM 25.8656 -100.2372 138° Southeast  Level Estimated
Tue 07:13:00 PM 25.8656 -100.2372 310° West  Level Estimated
Tue 07:14:00 PM 25.8656 -100.2372 318° Northwest  Level Estimated
Tue 07:15:00 PM 25.8656 -100.2372 318° Northwest  Level Estimated
Tue 07:16:00 PM 25.8656 -100.2372 318° Northwest  Level Estimated
Tue 07:17:00 PM 25.8656 -100.2372 318° Northwest  Level Estimated
Tue 07:18:00 PM 25.8656 -100.2372 318° Northwest  Level Estimated
Tue 07:19:00 PM 25.8656 -100.2372 318° Northwest  Level Estimated
Tue 07:20:00 PM 25.8656 -100.2372 318° Northwest  Level Estimated
Tue 07:21:00 PM 25.8656 -100.2372 318° Northwest  Level Estimated
Tue 07:22:00 PM 25.8656 -100.2372 318° Northwest  Level Estimated
Tue 07:23:00 PM 25.8656 -100.2372 318° Northwest  Level Estimated
Tue 07:24:00 PM 25.8656 -100.2372 318° Northwest  Level Estimated
Tue 07:25:00 PM 25.8656 -100.2372 318° Northwest  Level Estimated
Tue 07:26:00 PM 25.8656 -100.2372 318° Northwest  Level Estimated
Tue 07:27:00 PM 25.8656 -100.2372 318° Northwest  Level Estimated
Tue 07:28:00 PM 25.8656 -100.2372 318° Northwest  Level Estimated
Tue 07:29:00 PM 25.8656 -100.2372 318° Northwest  Level Estimated
Tue 07:30:00 PM 25.8656 -100.2372 318° Northwest  Level Estimated
Tue 07:31:00 PM 25.8656 -100.2372 318° Northwest  Level Estimated
Tue 07:32:00 PM 25.8656 -100.2372 318° Northwest  Level Estimated
Tue 07:33:00 PM 25.8656 -100.2372 318° Northwest  Level Estimated
Tue 07:34:00 PM 25.8656 -100.2372 318° Northwest  Level Estimated
Tue 07:35:00 PM 25.8656 -100.2372 318° Northwest  Level Estimated

Login

Don't have an account? Register now (free) for customized features, flight alerts, and more!